sensor_id;sensor_type;location;lat;lon;timestamp;temperature;humidity
22578;DHT22;11455;52.390;13.028;2023-05-14T00:00:11;18.50;1.00
22578;DHT22;11455;52.390;13.028;2023-05-14T00:02:37;18.50;1.00
22578;DHT22;11455;52.390;13.028;2023-05-14T00:05:03;18.50;1.00
22578;DHT22;11455;52.390;13.028;2023-05-14T00:07:29;18.50;1.00
22578;DHT22;11455;52.390;13.028;2023-05-14T00:09:57;18.50;1.00
22578;DHT22;11455;52.390;13.028;2023-05-14T00:12:23;18.50;1.00
22578;DHT22;11455;52.390;13.028;2023-05-14T00:14:48;18.50;1.00
22578;DHT22;11455;52.390;13.028;2023-05-14T00:17:14;18.50;1.00
22578;DHT22;11455;52.390;13.028;2023-05-14T00:19:42;18.40;1.00
22578;DHT22;11455;52.390;13.028;2023-05-14T00:22:08;18.40;1.00
22578;DHT22;11455;52.390;13.028;2023-05-14T00:24:34;18.40;1.00
22578;DHT22;11455;52.390;13.028;2023-05-14T00:26:59;18.40;1.00
22578;DHT22;11455;52.390;13.028;2023-05-14T00:29:25;18.40;1.00
22578;DHT22;11455;52.390;13.028;2023-05-14T00:31:51;18.40;1.00
22578;DHT22;11455;52.390;13.028;2023-05-14T00:34:16;18.30;1.00
22578;DHT22;11455;52.390;13.028;2023-05-14T00:36:42;18.40;1.00
22578;DHT22;11455;52.390;13.028;2023-05-14T00:39:08;18.30;1.00
22578;DHT22;11455;52.390;13.028;2023-05-14T00:41:33;18.30;1.00
22578;DHT22;11455;52.390;13.028;2023-05-14T00:43:59;18.30;1.00
22578;DHT22;11455;52.390;13.028;2023-05-14T00:46:25;18.30;1.00
22578;DHT22;11455;52.390;13.028;2023-05-14T00:48:50;18.30;1.00
22578;DHT22;11455;52.390;13.028;2023-05-14T00:51:16;18.30;1.00
22578;DHT22;11455;52.390;13.028;2023-05-14T00:53:43;18.20;1.00
22578;DHT22;11455;52.390;13.028;2023-05-14T00:56:09;18.20;1.00
22578;DHT22;11455;52.390;13.028;2023-05-14T00:58:35;18.20;1.00
22578;DHT22;11455;52.390;13.028;2023-05-14T01:01:01;18.10;1.00
22578;DHT22;11455;52.390;13.028;2023-05-14T01:03:28;18.10;1.00
22578;DHT22;11455;52.390;13.028;2023-05-14T01:16:04;17.60;1.00
22578;DHT22;11455;52.390;13.028;2023-05-14T01:18:33;17.50;1.00
22578;DHT22;11455;52.390;13.028;2023-05-14T01:20:59;17.40;1.00
22578;DHT22;11455;52.390;13.028;2023-05-14T01:23:26;17.30;1.00
22578;DHT22;11455;52.390;13.028;2023-05-14T01:25:51;17.10;1.00
22578;DHT22;11455;52.390;13.028;2023-05-14T01:28:18;17.00;1.00
22578;DHT22;11455;52.390;13.028;2023-05-14T01:30:45;16.80;1.00
22578;DHT22;11455;52.390;13.028;2023-05-14T01:33:12;16.70;1.00
22578;DHT22;11455;52.390;13.028;2023-05-14T01:35:40;16.60;1.00
22578;DHT22;11455;52.390;13.028;2023-05-14T01:38:06;16.40;1.00
22578;DHT22;11455;52.390;13.028;2023-05-14T01:40:33;16.40;1.00
22578;DHT22;11455;52.390;13.028;2023-05-14T01:43:01;16.20;1.00
22578;DHT22;11455;52.390;13.028;2023-05-14T01:45:29;16.20;1.00
22578;DHT22;11455;52.390;13.028;2023-05-14T01:47:56;16.10;1.00
22578;DHT22;11455;52.390;13.028;2023-05-14T01:50:24;15.90;1.00
22578;DHT22;11455;52.390;13.028;2023-05-14T01:52:50;15.90;1.00
22578;DHT22;11455;52.390;13.028;2023-05-14T01:55:17;15.80;1.00
22578;DHT22;11455;52.390;13.028;2023-05-14T01:57:43;15.80;1.00
22578;DHT22;11455;52.390;13.028;2023-05-14T02:00:09;15.70;1.00
22578;DHT22;11455;52.390;13.028;2023-05-14T02:02:42;15.60;1.00
22578;DHT22;11455;52.390;13.028;2023-05-14T02:05:10;15.50;1.00
22578;DHT22;11455;52.390;13.028;2023-05-14T02:07:36;15.40;1.00
22578;DHT22;11455;52.390;13.028;2023-05-14T02:10:02;15.30;1.00
22578;DHT22;11455;52.390;13.028;2023-05-14T02:12:28;15.30;1.00
22578;DHT22;11455;52.390;13.028;2023-05-14T02:14:56;15.30;1.00
22578;DHT22;11455;52.390;13.028;2023-05-14T02:17:21;15.30;1.00
22578;DHT22;11455;52.390;13.028;2023-05-14T02:19:47;15.30;1.00
22578;DHT22;11455;52.390;13.028;2023-05-14T02:22:13;15.30;1.00
22578;DHT22;11455;52.390;13.028;2023-05-14T02:24:38;15.40;1.00
22578;DHT22;11455;52.390;13.028;2023-05-14T02:27:04;15.40;1.00
22578;DHT22;11455;52.390;13.028;2023-05-14T02:29:30;15.30;1.00
22578;DHT22;11455;52.390;13.028;2023-05-14T02:31:58;15.30;1.00
22578;DHT22;11455;52.390;13.028;2023-05-14T02:34:24;15.20;1.00
22578;DHT22;11455;52.390;13.028;2023-05-14T02:36:54;15.20;1.00
22578;DHT22;11455;52.390;13.028;2023-05-14T02:39:19;15.10;1.00
22578;DHT22;11455;52.390;13.028;2023-05-14T02:41:45;15.10;1.00
22578;DHT22;11455;52.390;13.028;2023-05-14T02:44:11;15.00;1.00
22578;DHT22;11455;52.390;13.028;2023-05-14T02:46:39;15.00;1.00
22578;DHT22;11455;52.390;13.028;2023-05-14T02:49:04;15.00;1.00
22578;DHT22;11455;52.390;13.028;2023-05-14T02:51:30;15.00;1.00
22578;DHT22;11455;52.390;13.028;2023-05-14T02:53:56;15.00;1.00
22578;DHT22;11455;52.390;13.028;2023-05-14T02:56:21;14.90;1.00
22578;DHT22;11455;52.390;13.028;2023-05-14T02:58:47;14.90;1.00
22578;DHT22;11455;52.390;13.028;2023-05-14T03:01:13;14.80;1.00
22578;DHT22;11455;52.390;13.028;2023-05-14T03:03:39;14.80;1.00
22578;DHT22;11455;52.390;13.028;2023-05-14T03:06:07;14.70;1.00
22578;DHT22;11455;52.390;13.028;2023-05-14T03:08:32;14.70;1.00
22578;DHT22;11455;52.390;13.028;2023-05-14T03:10:58;14.60;1.00
22578;DHT22;11455;52.390;13.028;2023-05-14T03:13:24;14.60;1.00
22578;DHT22;11455;52.390;13.028;2023-05-14T03:15:49;14.60;1.00
22578;DHT22;11455;52.390;13.028;2023-05-14T03:18:19;14.60;1.00
22578;DHT22;11455;52.390;13.028;2023-05-14T03:20:45;14.60;1.00
22578;DHT22;11455;52.390;13.028;2023-05-14T03:23:10;14.60;1.00
22578;DHT22;11455;52.390;13.028;2023-05-14T03:25:36;14.50;1.00
22578;DHT22;11455;52.390;13.028;2023-05-14T03:28:02;14.50;1.00
22578;DHT22;11455;52.390;13.028;2023-05-14T03:30:28;14.40;1.00
22578;DHT22;11455;52.390;13.028;2023-05-14T03:32:53;14.40;1.00
22578;DHT22;11455;52.390;13.028;2023-05-14T03:35:22;14.30;1.00
22578;DHT22;11455;52.390;13.028;2023-05-14T03:37:50;14.30;1.00
22578;DHT22;11455;52.390;13.028;2023-05-14T03:40:17;14.30;1.00
22578;DHT22;11455;52.390;13.028;2023-05-14T03:42:43;14.30;1.00
22578;DHT22;11455;52.390;13.028;2023-05-14T03:45:09;14.30;1.00
22578;DHT22;11455;52.390;13.028;2023-05-14T03:47:35;14.30;1.00
22578;DHT22;11455;52.390;13.028;2023-05-14T03:50:00;14.30;1.00
22578;DHT22;11455;52.390;13.028;2023-05-14T03:52:26;14.40;1.00
22578;DHT22;11455;52.390;13.028;2023-05-14T03:54:52;14.40;1.00
22578;DHT22;11455;52.390;13.028;2023-05-14T03:57:17;14.50;1.00
22578;DHT22;11455;52.390;13.028;2023-05-14T03:59:43;14.60;1.00
22578;DHT22;11455;52.390;13.028;2023-05-14T04:02:08;14.60;1.00
22578;DHT22;11455;52.390;13.028;2023-05-14T04:04:37;14.80;1.00
22578;DHT22;11455;52.390;13.028;2023-05-14T04:07:02;15.00;1.00
22578;DHT22;11455;52.390;13.028;2023-05-14T04:09:28;15.20;1.00
22578;DHT22;11455;52.390;13.028;2023-05-14T04:11:55;15.40;1.00
22578;DHT22;11455;52.390;13.028;2023-05-14T04:14:21;15.50;1.00
22578;DHT22;11455;52.390;13.028;2023-05-14T04:16:47;15.70;1.00
22578;DHT22;11455;52.390;13.028;2023-05-14T04:19:12;15.80;1.00
22578;DHT22;11455;52.390;13.028;2023-05-14T04:21:38;16.00;1.00
22578;DHT22;11455;52.390;13.028;2023-05-14T04:24:04;16.10;1.00
22578;DHT22;11455;52.390;13.028;2023-05-14T04:26:32;16.20;1.00
22578;DHT22;11455;52.390;13.028;2023-05-14T04:28:57;16.30;1.00
22578;DHT22;11455;52.390;13.028;2023-05-14T04:31:27;16.30;1.00
22578;DHT22;11455;52.390;13.028;2023-05-14T04:33:52;16.30;1.00
22578;DHT22;11455;52.390;13.028;2023-05-14T04:36:18;16.30;1.00
22578;DHT22;11455;52.390;13.028;2023-05-14T04:38:44;16.20;1.00
22578;DHT22;11455;52.390;13.028;2023-05-14T04:41:09;16.20;1.00
22578;DHT22;11455;52.390;13.028;2023-05-14T04:43:35;16.30;1.00
22578;DHT22;11455;52.390;13.028;2023-05-14T04:46:01;16.30;1.00
22578;DHT22;11455;52.390;13.028;2023-05-14T04:48:26;16.40;1.00
22578;DHT22;11455;52.390;13.028;2023-05-14T04:50:52;16.40;1.00
22578;DHT22;11455;52.390;13.028;2023-05-14T04:53:18;16.40;1.00
22578;DHT22;11455;52.390;13.028;2023-05-14T04:55:43;16.40;1.00
22578;DHT22;11455;52.390;13.028;2023-05-14T04:58:09;16.50;1.00
22578;DHT22;11455;52.390;13.028;2023-05-14T05:00:34;16.50;1.00
22578;DHT22;11455;52.390;13.028;2023-05-14T05:03:00;16.60;1.00
22578;DHT22;11455;52.390;13.028;2023-05-14T05:05:26;16.60;1.00
22578;DHT22;11455;52.390;13.028;2023-05-14T05:07:51;16.60;1.00
22578;DHT22;11455;52.390;13.028;2023-05-14T05:10:17;16.70;1.00
22578;DHT22;11455;52.390;13.028;2023-05-14T05:12:43;16.70;1.00
22578;DHT22;11455;52.390;13.028;2023-05-14T05:15:08;16.60;1.00
22578;DHT22;11455;52.390;13.028;2023-05-14T05:17:34;16.60;1.00
22578;DHT22;11455;52.390;13.028;2023-05-14T05:20:00;16.70;1.00
22578;DHT22;11455;52.390;13.028;2023-05-14T05:22:26;16.70;1.00
22578;DHT22;11455;52.390;13.028;2023-05-14T05:24:51;16.70;1.00
22578;DHT22;11455;52.390;13.028;2023-05-14T05:27:17;16.80;1.00
22578;DHT22;11455;52.390;13.028;2023-05-14T05:29:43;16.80;1.00
22578;DHT22;11455;52.390;13.028;2023-05-14T05:32:11;16.80;1.00
22578;DHT22;11455;52.390;13.028;2023-05-14T05:34:39;16.90;1.00
22578;DHT22;11455;52.390;13.028;2023-05-14T05:37:05;16.90;1.00
22578;DHT22;11455;52.390;13.028;2023-05-14T05:39:31;16.90;1.00
22578;DHT22;11455;52.390;13.028;2023-05-14T05:41:59;16.90;1.00
22578;DHT22;11455;52.390;13.028;2023-05-14T05:44:25;17.00;1.00
22578;DHT22;11455;52.390;13.028;2023-05-14T05:46:51;17.00;1.00
22578;DHT22;11455;52.390;13.028;2023-05-14T05:49:17;17.00;1.00
22578;DHT22;11455;52.390;13.028;2023-05-14T05:51:42;17.10;1.00
22578;DHT22;11455;52.390;13.028;2023-05-14T05:54:08;17.20;1.00
22578;DHT22;11455;52.390;13.028;2023-05-14T05:56:33;17.20;1.00
22578;DHT22;11455;52.390;13.028;2023-05-14T05:58:59;17.20;1.00
22578;DHT22;11455;52.390;13.028;2023-05-14T06:01:25;17.20;1.00
22578;DHT22;11455;52.390;13.028;2023-05-14T06:03:51;17.20;1.00
22578;DHT22;11455;52.390;13.028;2023-05-14T06:06:17;17.20;1.00
22578;DHT22;11455;52.390;13.028;2023-05-14T06:08:43;17.30;1.00
22578;DHT22;11455;52.390;13.028;2023-05-14T06:11:08;17.40;1.00
22578;DHT22;11455;52.390;13.028;2023-05-14T06:13:34;17.40;1.00
22578;DHT22;11455;52.390;13.028;2023-05-14T06:16:00;17.40;1.00
22578;DHT22;11455;52.390;13.028;2023-05-14T06:18:26;17.40;1.00
22578;DHT22;11455;52.390;13.028;2023-05-14T06:20:51;17.40;1.00
22578;DHT22;11455;52.390;13.028;2023-05-14T06:23:17;17.50;1.00
22578;DHT22;11455;52.390;13.028;2023-05-14T06:25:42;17.50;1.00
22578;DHT22;11455;52.390;13.028;2023-05-14T06:28:08;17.60;1.00
22578;DHT22;11455;52.390;13.028;2023-05-14T06:30:34;17.60;1.00
22578;DHT22;11455;52.390;13.028;2023-05-14T06:33:00;17.60;1.00
22578;DHT22;11455;52.390;13.028;2023-05-14T06:35:25;17.50;1.00
22578;DHT22;11455;52.390;13.028;2023-05-14T06:37:51;17.50;1.00
22578;DHT22;11455;52.390;13.028;2023-05-14T06:40:17;17.60;1.00
22578;DHT22;11455;52.390;13.028;2023-05-14T06:42:42;17.60;1.00
22578;DHT22;11455;52.390;13.028;2023-05-14T06:45:08;17.60;1.00
22578;DHT22;11455;52.390;13.028;2023-05-14T06:47:34;17.50;1.00
22578;DHT22;11455;52.390;13.028;2023-05-14T06:49:59;17.50;1.00
22578;DHT22;11455;52.390;13.028;2023-05-14T06:52:26;17.50;1.00
22578;DHT22;11455;52.390;13.028;2023-05-14T06:54:51;17.60;1.00
22578;DHT22;11455;52.390;13.028;2023-05-14T06:57:17;17.70;1.00
22578;DHT22;11455;52.390;13.028;2023-05-14T06:59:43;17.70;1.00
22578;DHT22;11455;52.390;13.028;2023-05-14T07:02:08;17.70;1.00
22578;DHT22;11455;52.390;13.028;2023-05-14T07:04:34;17.70;1.00
22578;DHT22;11455;52.390;13.028;2023-05-14T07:07:00;17.70;1.00
22578;DHT22;11455;52.390;13.028;2023-05-14T07:09:26;17.80;1.00
22578;DHT22;11455;52.390;13.028;2023-05-14T07:11:54;17.80;1.00
22578;DHT22;11455;52.390;13.028;2023-05-14T07:14:19;17.80;1.00
22578;DHT22;11455;52.390;13.028;2023-05-14T07:16:45;17.90;1.00
22578;DHT22;11455;52.390;13.028;2023-05-14T07:19:11;17.90;1.00
22578;DHT22;11455;52.390;13.028;2023-05-14T07:21:37;17.90;1.00
22578;DHT22;11455;52.390;13.028;2023-05-14T07:24:02;18.00;1.00
22578;DHT22;11455;52.390;13.028;2023-05-14T07:26:28;18.00;1.00
22578;DHT22;11455;52.390;13.028;2023-05-14T07:28:54;18.10;1.00
22578;DHT22;11455;52.390;13.028;2023-05-14T07:31:20;18.10;1.00
22578;DHT22;11455;52.390;13.028;2023-05-14T07:33:46;18.10;1.00
22578;DHT22;11455;52.390;13.028;2023-05-14T07:36:11;18.10;1.00
22578;DHT22;11455;52.390;13.028;2023-05-14T07:38:37;18.20;1.00
22578;DHT22;11455;52.390;13.028;2023-05-14T07:41:03;18.30;1.00
22578;DHT22;11455;52.390;13.028;2023-05-14T07:43:29;18.30;1.00
22578;DHT22;11455;52.390;13.028;2023-05-14T07:45:55;18.40;1.00
22578;DHT22;11455;52.390;13.028;2023-05-14T07:48:21;18.40;1.00
22578;DHT22;11455;52.390;13.028;2023-05-14T07:50:47;18.40;1.00
22578;DHT22;11455;52.390;13.028;2023-05-14T07:53:13;18.50;1.00
22578;DHT22;11455;52.390;13.028;2023-05-14T07:55:38;18.50;1.00
22578;DHT22;11455;52.390;13.028;2023-05-14T07:58:04;18.60;1.00
22578;DHT22;11455;52.390;13.028;2023-05-14T08:00:30;18.70;1.00
22578;DHT22;11455;52.390;13.028;2023-05-14T08:02:56;18.80;1.00
22578;DHT22;11455;52.390;13.028;2023-05-14T08:05:24;18.80;1.00
22578;DHT22;11455;52.390;13.028;2023-05-14T08:07:50;18.90;1.00
22578;DHT22;11455;52.390;13.028;2023-05-14T08:10:16;18.90;1.00
22578;DHT22;11455;52.390;13.028;2023-05-14T08:12:42;18.90;1.00
22578;DHT22;11455;52.390;13.028;2023-05-14T08:15:08;19.00;1.00
22578;DHT22;11455;52.390;13.028;2023-05-14T08:17:33;19.00;1.00
22578;DHT22;11455;52.390;13.028;2023-05-14T08:19:59;19.10;1.00
22578;DHT22;11455;52.390;13.028;2023-05-14T08:22:26;19.10;1.00
22578;DHT22;11455;52.390;13.028;2023-05-14T08:24:51;19.30;1.00
22578;DHT22;11455;52.390;13.028;2023-05-14T08:27:17;19.30;1.00
22578;DHT22;11455;52.390;13.028;2023-05-14T08:29:43;19.40;1.00
22578;DHT22;11455;52.390;13.028;2023-05-14T08:32:08;19.50;1.00
22578;DHT22;11455;52.390;13.028;2023-05-14T08:34:34;19.50;1.00
22578;DHT22;11455;52.390;13.028;2023-05-14T08:37:00;19.50;1.00
22578;DHT22;11455;52.390;13.028;2023-05-14T08:39:26;19.50;1.00
22578;DHT22;11455;52.390;13.028;2023-05-14T08:41:51;19.60;1.00
22578;DHT22;11455;52.390;13.028;2023-05-14T08:44:18;19.60;1.00
22578;DHT22;11455;52.390;13.028;2023-05-14T08:46:46;19.60;1.00
22578;DHT22;11455;52.390;13.028;2023-05-14T08:49:14;19.70;1.00
22578;DHT22;11455;52.390;13.028;2023-05-14T08:51:43;19.80;1.00
22578;DHT22;11455;52.390;13.028;2023-05-14T08:54:15;19.90;1.00
22578;DHT22;11455;52.390;13.028;2023-05-14T08:56:42;20.00;1.00
22578;DHT22;11455;52.390;13.028;2023-05-14T08:59:08;20.00;1.00
22578;DHT22;11455;52.390;13.028;2023-05-14T09:01:34;20.10;1.00
22578;DHT22;11455;52.390;13.028;2023-05-14T09:04:00;20.00;1.00
22578;DHT22;11455;52.390;13.028;2023-05-14T09:06:31;20.10;1.00
22578;DHT22;11455;52.390;13.028;2023-05-14T09:08:57;20.00;1.00
22578;DHT22;11455;52.390;13.028;2023-05-14T09:11:22;20.00;1.00
22578;DHT22;11455;52.390;13.028;2023-05-14T09:13:49;20.00;1.00
22578;DHT22;11455;52.390;13.028;2023-05-14T09:16:14;20.10;1.00
22578;DHT22;11455;52.390;13.028;2023-05-14T09:18:43;20.10;1.00
22578;DHT22;11455;52.390;13.028;2023-05-14T09:21:11;20.30;1.00
22578;DHT22;11455;52.390;13.028;2023-05-14T09:23:38;20.40;1.00
22578;DHT22;11455;52.390;13.028;2023-05-14T09:26:06;20.50;1.00
22578;DHT22;11455;52.390;13.028;2023-05-14T09:28:31;20.60;1.00
22578;DHT22;11455;52.390;13.028;2023-05-14T09:30:57;20.70;1.00
22578;DHT22;11455;52.390;13.028;2023-05-14T09:33:27;20.70;1.00
22578;DHT22;11455;52.390;13.028;2023-05-14T09:35:59;20.80;1.00
22578;DHT22;11455;52.390;13.028;2023-05-14T09:38:31;20.80;1.00
22578;DHT22;11455;52.390;13.028;2023-05-14T09:41:00;20.80;1.00
22578;DHT22;11455;52.390;13.028;2023-05-14T09:43:26;20.90;1.00
22578;DHT22;11455;52.390;13.028;2023-05-14T09:45:52;20.90;1.00
22578;DHT22;11455;52.390;13.028;2023-05-14T09:48:18;21.00;1.00
22578;DHT22;11455;52.390;13.028;2023-05-14T09:50:44;20.90;1.00
22578;DHT22;11455;52.390;13.028;2023-05-14T09:53:11;20.90;1.00
22578;DHT22;11455;52.390;13.028;2023-05-14T09:55:37;20.90;1.00
22578;DHT22;11455;52.390;13.028;2023-05-14T09:58:03;20.80;1.00
22578;DHT22;11455;52.390;13.028;2023-05-14T10:00:30;20.90;1.00
22578;DHT22;11455;52.390;13.028;2023-05-14T10:02:59;21.00;99.90
22578;DHT22;11455;52.390;13.028;2023-05-14T10:05:26;21.00;99.90
22578;DHT22;11455;52.390;13.028;2023-05-14T10:07:53;21.20;99.90
22578;DHT22;11455;52.390;13.028;2023-05-14T10:10:22;21.30;99.90
22578;DHT22;11455;52.390;13.028;2023-05-14T10:12:52;21.40;99.90
22578;DHT22;11455;52.390;13.028;2023-05-14T10:15:22;21.40;99.90
22578;DHT22;11455;52.390;13.028;2023-05-14T10:17:53;21.50;99.90
22578;DHT22;11455;52.390;13.028;2023-05-14T10:20:20;21.50;99.90
22578;DHT22;11455;52.390;13.028;2023-05-14T10:22:47;21.40;99.90
22578;DHT22;11455;52.390;13.028;2023-05-14T10:25:12;21.30;99.90
22578;DHT22;11455;52.390;13.028;2023-05-14T10:27:38;21.30;99.90
22578;DHT22;11455;52.390;13.028;2023-05-14T10:30:10;21.30;99.90
22578;DHT22;11455;52.390;13.028;2023-05-14T10:32:38;21.20;99.90
22578;DHT22;11455;52.390;13.028;2023-05-14T10:35:19;21.00;99.90
22578;DHT22;11455;52.390;13.028;2023-05-14T10:37:46;20.90;99.90
22578;DHT22;11455;52.390;13.028;2023-05-14T10:40:15;20.90;99.90
22578;DHT22;11455;52.390;13.028;2023-05-14T10:42:42;20.90;99.90
22578;DHT22;11455;52.390;13.028;2023-05-14T10:45:09;20.90;99.90
22578;DHT22;11455;52.390;13.028;2023-05-14T10:47:38;20.90;99.90
22578;DHT22;11455;52.390;13.028;2023-05-14T10:50:05;20.90;99.90
22578;DHT22;11455;52.390;13.028;2023-05-14T10:52:32;20.90;99.90
22578;DHT22;11455;52.390;13.028;2023-05-14T10:54:59;20.90;99.90
22578;DHT22;11455;52.390;13.028;2023-05-14T10:57:26;20.80;99.90
22578;DHT22;11455;52.390;13.028;2023-05-14T10:59:52;20.70;99.90
22578;DHT22;11455;52.390;13.028;2023-05-14T11:02:20;20.70;99.90
22578;DHT22;11455;52.390;13.028;2023-05-14T11:04:55;20.60;99.90
22578;DHT22;11455;52.390;13.028;2023-05-14T11:07:24;20.60;99.90
22578;DHT22;11455;52.390;13.028;2023-05-14T11:09:51;20.50;99.90
22578;DHT22;11455;52.390;13.028;2023-05-14T11:12:18;20.50;99.90
22578;DHT22;11455;52.390;13.028;2023-05-14T11:14:45;20.50;99.90
22578;DHT22;11455;52.390;13.028;2023-05-14T11:17:11;20.50;99.90
22578;DHT22;11455;52.390;13.028;2023-05-14T11:19:36;20.40;99.90
22578;DHT22;11455;52.390;13.028;2023-05-14T11:22:02;20.40;99.90
22578;DHT22;11455;52.390;13.028;2023-05-14T11:24:27;20.30;99.90
22578;DHT22;11455;52.390;13.028;2023-05-14T11:26:53;20.30;99.90
22578;DHT22;11455;52.390;13.028;2023-05-14T11:29:20;20.30;99.90
22578;DHT22;11455;52.390;13.028;2023-05-14T11:31:48;20.40;99.90
22578;DHT22;11455;52.390;13.028;2023-05-14T11:34:14;20.40;99.90
22578;DHT22;11455;52.390;13.028;2023-05-14T11:36:40;20.50;99.90
22578;DHT22;11455;52.390;13.028;2023-05-14T11:39:06;20.50;99.90
22578;DHT22;11455;52.390;13.028;2023-05-14T11:41:32;20.60;99.90
22578;DHT22;11455;52.390;13.028;2023-05-14T11:44:00;20.70;99.90
22578;DHT22;11455;52.390;13.028;2023-05-14T11:46:26;20.80;99.90
22578;DHT22;11455;52.390;13.028;2023-05-14T11:48:54;20.80;99.90
22578;DHT22;11455;52.390;13.028;2023-05-14T11:51:19;20.90;99.90
22578;DHT22;11455;52.390;13.028;2023-05-14T11:53:45;20.90;99.90
22578;DHT22;11455;52.390;13.028;2023-05-14T11:56:11;20.90;99.90
22578;DHT22;11455;52.390;13.028;2023-05-14T11:58:37;20.90;99.90
22578;DHT22;11455;52.390;13.028;2023-05-14T12:01:02;21.00;99.90
22578;DHT22;11455;52.390;13.028;2023-05-14T12:03:29;21.00;99.90
22578;DHT22;11455;52.390;13.028;2023-05-14T12:08:21;21.00;99.90
22578;DHT22;11455;52.390;13.028;2023-05-14T12:10:47;21.00;99.90
22578;DHT22;11455;52.390;13.028;2023-05-14T12:13:14;21.00;99.90
22578;DHT22;11455;52.390;13.028;2023-05-14T12:15:39;21.00;99.90
22578;DHT22;11455;52.390;13.028;2023-05-14T12:18:08;21.00;99.90
22578;DHT22;11455;52.390;13.028;2023-05-14T12:20:34;21.00;99.90
22578;DHT22;11455;52.390;13.028;2023-05-14T12:23:00;21.00;99.90
22578;DHT22;11455;52.390;13.028;2023-05-14T12:25:26;21.00;99.90
22578;DHT22;11455;52.390;13.028;2023-05-14T12:27:51;20.90;99.90
22578;DHT22;11455;52.390;13.028;2023-05-14T12:30:17;20.90;99.90
22578;DHT22;11455;52.390;13.028;2023-05-14T12:32:43;20.90;99.90
22578;DHT22;11455;52.390;13.028;2023-05-14T12:35:08;20.80;99.90
22578;DHT22;11455;52.390;13.028;2023-05-14T12:37:34;20.80;99.90
22578;DHT22;11455;52.390;13.028;2023-05-14T12:40:04;20.70;99.90
22578;DHT22;11455;52.390;13.028;2023-05-14T12:42:37;20.80;99.90
22578;DHT22;11455;52.390;13.028;2023-05-14T12:45:03;20.80;99.90
22578;DHT22;11455;52.390;13.028;2023-05-14T12:47:32;20.80;99.90
22578;DHT22;11455;52.390;13.028;2023-05-14T12:49:57;20.80;99.90
22578;DHT22;11455;52.390;13.028;2023-05-14T12:52:23;20.70;99.90
22578;DHT22;11455;52.390;13.028;2023-05-14T12:54:49;20.70;99.90
22578;DHT22;11455;52.390;13.028;2023-05-14T12:57:14;20.80;99.90
22578;DHT22;11455;52.390;13.028;2023-05-14T12:59:40;20.80;99.90
22578;DHT22;11455;52.390;13.028;2023-05-14T13:02:05;20.90;99.90
22578;DHT22;11455;52.390;13.028;2023-05-14T13:04:31;20.90;99.90
22578;DHT22;11455;52.390;13.028;2023-05-14T13:06:57;21.00;99.90
22578;DHT22;11455;52.390;13.028;2023-05-14T13:09:22;21.20;99.90
22578;DHT22;11455;52.390;13.028;2023-05-14T13:11:48;21.20;99.90
22578;DHT22;11455;52.390;13.028;2023-05-14T13:14:14;21.20;99.90
22578;DHT22;11455;52.390;13.028;2023-05-14T13:16:39;21.20;99.90
22578;DHT22;11455;52.390;13.028;2023-05-14T13:19:05;21.20;99.90
22578;DHT22;11455;52.390;13.028;2023-05-14T13:21:31;21.20;99.90
22578;DHT22;11455;52.390;13.028;2023-05-14T13:23:56;21.20;99.90
22578;DHT22;11455;52.390;13.028;2023-05-14T13:26:22;21.20;99.90
22578;DHT22;11455;52.390;13.028;2023-05-14T13:28:50;21.30;99.90
22578;DHT22;11455;52.390;13.028;2023-05-14T13:31:16;21.20;99.90
22578;DHT22;11455;52.390;13.028;2023-05-14T13:33:42;21.20;99.90
22578;DHT22;11455;52.390;13.028;2023-05-14T13:36:08;21.20;99.90
22578;DHT22;11455;52.390;13.028;2023-05-14T13:38:34;21.20;99.90
22578;DHT22;11455;52.390;13.028;2023-05-14T13:41:00;21.10;99.90
22578;DHT22;11455;52.390;13.028;2023-05-14T13:43:30;21.10;99.90
22578;DHT22;11455;52.390;13.028;2023-05-14T13:45:56;21.10;99.90
22578;DHT22;11455;52.390;13.028;2023-05-14T13:48:22;21.00;99.90
22578;DHT22;11455;52.390;13.028;2023-05-14T13:50:48;21.00;99.90
22578;DHT22;11455;52.390;13.028;2023-05-14T13:53:13;21.00;99.90
22578;DHT22;11455;52.390;13.028;2023-05-14T13:55:39;21.00;99.90
22578;DHT22;11455;52.390;13.028;2023-05-14T13:58:07;21.00;99.90
22578;DHT22;11455;52.390;13.028;2023-05-14T14:00:34;21.00;99.90
22578;DHT22;11455;52.390;13.028;2023-05-14T14:02:59;21.00;99.90
22578;DHT22;11455;52.390;13.028;2023-05-14T14:05:25;21.00;99.90
22578;DHT22;11455;52.390;13.028;2023-05-14T14:07:53;21.00;99.90
22578;DHT22;11455;52.390;13.028;2023-05-14T14:10:18;21.00;99.90
22578;DHT22;11455;52.390;13.028;2023-05-14T14:12:44;21.00;99.90
22578;DHT22;11455;52.390;13.028;2023-05-14T14:15:10;21.10;99.90
22578;DHT22;11455;52.390;13.028;2023-05-14T14:17:36;21.10;99.90
22578;DHT22;11455;52.390;13.028;2023-05-14T14:20:03;21.10;99.90
22578;DHT22;11455;52.390;13.028;2023-05-14T14:22:30;21.20;99.90
22578;DHT22;11455;52.390;13.028;2023-05-14T14:24:58;21.20;99.90
22578;DHT22;11455;52.390;13.028;2023-05-14T14:27:24;21.20;99.90
22578;DHT22;11455;52.390;13.028;2023-05-14T14:29:50;21.30;99.90
22578;DHT22;11455;52.390;13.028;2023-05-14T14:32:15;21.30;99.90
22578;DHT22;11455;52.390;13.028;2023-05-14T14:34:41;21.30;99.90
22578;DHT22;11455;52.390;13.028;2023-05-14T14:37:08;21.20;99.90
22578;DHT22;11455;52.390;13.028;2023-05-14T14:39:34;21.10;99.90
22578;DHT22;11455;52.390;13.028;2023-05-14T14:42:00;21.10;99.90
22578;DHT22;11455;52.390;13.028;2023-05-14T14:44:25;21.10;99.90
22578;DHT22;11455;52.390;13.028;2023-05-14T14:46:51;21.00;99.90
22578;DHT22;11455;52.390;13.028;2023-05-14T14:49:19;21.10;99.90
22578;DHT22;11455;52.390;13.028;2023-05-14T14:51:47;21.00;99.90
22578;DHT22;11455;52.390;13.028;2023-05-14T14:54:13;21.00;99.90
22578;DHT22;11455;52.390;13.028;2023-05-14T14:56:38;21.00;99.90
22578;DHT22;11455;52.390;13.028;2023-05-14T14:59:04;21.00;99.90
22578;DHT22;11455;52.390;13.028;2023-05-14T15:01:30;21.00;99.90
22578;DHT22;11455;52.390;13.028;2023-05-14T15:03:55;21.00;99.90
22578;DHT22;11455;52.390;13.028;2023-05-14T15:06:21;21.00;99.90
22578;DHT22;11455;52.390;13.028;2023-05-14T15:08:47;21.00;99.90
22578;DHT22;11455;52.390;13.028;2023-05-14T15:11:13;21.00;99.90
22578;DHT22;11455;52.390;13.028;2023-05-14T15:13:38;21.00;99.90
22578;DHT22;11455;52.390;13.028;2023-05-14T15:16:06;21.10;99.90
22578;DHT22;11455;52.390;13.028;2023-05-14T15:18:32;21.10;99.90
22578;DHT22;11455;52.390;13.028;2023-05-14T15:20:57;21.10;99.90
22578;DHT22;11455;52.390;13.028;2023-05-14T15:23:23;21.10;99.90
22578;DHT22;11455;52.390;13.028;2023-05-14T15:25:48;21.10;99.90
22578;DHT22;11455;52.390;13.028;2023-05-14T15:28:14;21.10;99.90
22578;DHT22;11455;52.390;13.028;2023-05-14T15:30:41;21.00;99.90